createdAt,value
2018-12-03T00:00:00.008Z,12.63
2018-12-03T00:05:09.996Z,7.23
2018-12-03T00:10:19.577Z,7.23
2018-12-03T00:15:29.375Z,9.77
2018-12-03T00:20:39.013Z,9.23
2018-12-03T00:25:48.487Z,7.13
2018-12-03T00:30:58.120Z,4.93
2018-12-03T00:36:07.917Z,5.17
2018-12-03T00:41:17.520Z,4.93
2018-12-03T00:46:27.040Z,5.47
2018-12-03T00:51:36.703Z,5.63
2018-12-03T00:56:46.330Z,4.63
2018-12-03T01:01:56.034Z,4.30
2018-12-03T01:07:06.991Z,3.60
2018-12-03T01:12:16.923Z,3.93
2018-12-03T01:17:26.610Z,4.47
2018-12-03T01:22:36.316Z,4.10
2018-12-03T01:27:46.220Z,3.70
2018-12-03T01:32:55.865Z,3.90
2018-12-03T01:38:07.351Z,3.33
2018-12-03T01:43:17.217Z,3.50
2018-12-03T01:48:34.457Z,4.90
2018-12-03T01:53:44.337Z,5.33
2018-12-03T01:58:55.481Z,4.50
2018-12-03T02:04:08.699Z,5.40
2018-12-03T02:09:19.315Z,5.63
2018-12-03T02:14:29.576Z,5.13
2018-12-03T02:19:39.320Z,5.33
2018-12-03T02:24:49.428Z,5.00
2018-12-03T02:29:59.225Z,6.73
2018-12-03T02:35:10.332Z,4.87
2018-12-03T02:40:19.823Z,5.00
2018-12-03T02:45:29.696Z,2.90
2018-12-03T02:50:39.410Z,3.83
2018-12-03T02:55:48.854Z,5.83
2018-12-03T03:00:58.422Z,4.90
2018-12-03T03:06:08.165Z,4.30
2018-12-03T03:11:17.768Z,6.10
2018-12-03T03:16:27.760Z,10.10
2018-12-03T03:21:37.528Z,6.90
2018-12-03T03:26:50.790Z,6.33
2018-12-03T03:32:00.668Z,5.87
2018-12-03T03:37:10.599Z,5.27
2018-12-03T03:42:20.741Z,5.03
2018-12-03T03:47:30.985Z,4.70
2018-12-03T03:52:41.196Z,3.97
2018-12-03T03:57:53.646Z,2.63
2018-12-03T04:03:04.482Z,2.73
2018-12-03T04:08:14.496Z,3.00
2018-12-03T04:13:24.798Z,2.17
2018-12-03T04:18:34.887Z,2.97
2018-12-03T04:23:44.898Z,2.50
2018-12-03T04:28:55.036Z,2.77
2018-12-03T04:34:05.454Z,2.80
2018-12-03T04:39:15.224Z,2.40
2018-12-03T04:44:25.058Z,3.17
2018-12-03T04:49:38.541Z,3.43
2018-12-03T04:54:49.037Z,3.00
2018-12-03T04:59:59.061Z,2.50
2018-12-03T05:05:09.362Z,2.60
2018-12-03T05:10:20.286Z,2.93
2018-12-03T05:15:29.950Z,2.70
2018-12-03T05:20:39.768Z,2.40
2018-12-03T05:25:49.500Z,2.60
2018-12-03T05:30:59.927Z,2.63
2018-12-03T05:36:09.692Z,2.23
2018-12-03T05:41:19.637Z,2.40
2018-12-03T05:46:29.465Z,2.20
2018-12-03T05:51:39.433Z,2.13
2018-12-03T05:56:49.520Z,2.37
2018-12-03T06:01:59.560Z,2.17
2018-12-03T06:07:09.587Z,2.13
2018-12-03T06:12:19.379Z,2.63
2018-12-03T06:17:29.178Z,2.27
2018-12-03T06:22:38.688Z,2.90
2018-12-03T06:27:52.159Z,2.23
2018-12-03T06:33:02.054Z,2.30
2018-12-03T06:38:15.487Z,2.33
2018-12-03T06:43:22.880Z,2.70
2018-12-03T06:48:34.780Z,2.77
2018-12-03T06:53:52.208Z,2.37
2018-12-03T07:05:16.182Z,2.90
2018-12-03T07:10:28.632Z,2.73
2018-12-03T07:15:42.975Z,2.77
2018-12-03T07:20:56.373Z,2.67
2018-12-03T07:26:08.078Z,3.07
2018-12-03T07:31:19.982Z,2.73
2018-12-03T07:36:31.667Z,2.50
2018-12-03T07:41:45.534Z,2.63
2018-12-03T07:47:00.098Z,3.50
2018-12-03T07:52:13.096Z,3.47
2018-12-03T07:57:25.526Z,3.00
2018-12-03T08:08:16.697Z,3.00
2018-12-03T08:13:30.631Z,2.80
2018-12-03T08:18:43.549Z,2.97
2018-12-03T08:24:03.960Z,3.33
2018-12-03T08:29:13.885Z,3.30
2018-12-03T08:34:25.377Z,3.50
2018-12-03T08:39:49.177Z,3.90
2018-12-03T08:45:03.146Z,3.47
2018-12-03T08:50:18.909Z,2.70
2018-12-03T08:55:30.032Z,3.83
2018-12-03T09:00:41.039Z,2.87
2018-12-03T09:05:51.910Z,3.20
2018-12-03T09:11:03.906Z,3.60
2018-12-03T09:16:14.633Z,3.60
2018-12-03T09:21:28.075Z,3.93
2018-12-03T09:26:40.599Z,4.43
2018-12-03T09:31:50.724Z,4.50
2018-12-03T09:37:04.452Z,4.00
2018-12-03T09:42:16.820Z,4.57
2018-12-03T09:47:30.790Z,4.27
2018-12-03T09:52:49.542Z,3.47
2018-12-03T09:58:21.909Z,4.10
2018-12-03T10:03:36.082Z,3.30
2018-12-03T10:08:47.396Z,3.57
2018-12-03T10:19:58.112Z,3.63
2018-12-03T10:25:16.032Z,3.87
2018-12-03T10:30:25.703Z,3.73
2018-12-03T10:35:42.688Z,3.43
2018-12-03T10:41:09.939Z,3.73
2018-12-03T10:46:26.633Z,3.37
2018-12-03T10:51:42.196Z,3.03
2018-12-03T10:56:55.798Z,3.20
2018-12-03T11:02:17.406Z,4.10
2018-12-03T11:07:29.965Z,3.07
2018-12-03T11:12:43.471Z,3.30
2018-12-03T11:17:55.705Z,3.40
2018-12-03T11:23:08.841Z,3.70
2018-12-03T11:28:19.136Z,3.93
2018-12-03T11:33:35.165Z,4.00
2018-12-03T11:39:25.942Z,4.07
2018-12-03T11:44:36.674Z,3.77
2018-12-03T11:49:48.827Z,4.13
2018-12-03T11:54:58.524Z,4.53
2018-12-03T12:00:19.245Z,4.07
2018-12-03T12:05:30.914Z,4.57
2018-12-03T12:10:41.028Z,4.73
2018-12-03T12:15:52.857Z,3.93
2018-12-03T12:21:08.041Z,4.10
2018-12-03T12:26:17.866Z,3.40
2018-12-03T12:32:37.050Z,3.63
2018-12-03T12:37:46.378Z,3.27
2018-12-03T12:42:55.738Z,4.33
2018-12-03T12:48:05.113Z,2.80
2018-12-03T12:53:14.475Z,3.60
2018-12-03T12:58:23.989Z,4.17
2018-12-03T13:03:35.055Z,4.17
2018-12-03T13:08:44.547Z,3.37
2018-12-03T13:13:53.942Z,3.90
2018-12-03T13:19:03.445Z,3.40
2018-12-03T13:24:12.967Z,4.27
2018-12-03T13:29:22.264Z,4.83
2018-12-03T13:34:34.374Z,3.40
2018-12-03T13:39:42.889Z,3.40
2018-12-03T13:44:52.243Z,4.23
2018-12-03T13:50:01.641Z,4.30
2018-12-03T13:55:14.835Z,4.20
2018-12-03T14:00:25.463Z,4.03
2018-12-03T14:05:43.846Z,4.60
2018-12-03T14:11:13.658Z,4.13
2018-12-03T14:16:33.076Z,3.90
2018-12-03T14:21:51.786Z,4.83
2018-12-03T14:27:01.218Z,3.60
2018-12-03T14:32:10.649Z,3.03
2018-12-03T14:37:20.305Z,2.70
2018-12-03T14:42:29.859Z,3.30
2018-12-03T14:47:39.247Z,3.57
2018-12-03T14:52:48.635Z,2.73
2018-12-03T14:57:57.909Z,3.40
2018-12-03T15:03:07.549Z,3.43
2018-12-03T15:08:16.848Z,3.60
2018-12-03T15:13:26.352Z,3.70
2018-12-03T15:18:35.746Z,4.90
2018-12-03T15:23:45.041Z,5.57
2018-12-03T15:28:54.378Z,5.40
2018-12-03T15:34:03.830Z,4.63
2018-12-03T15:39:13.299Z,5.23
2018-12-03T15:44:22.714Z,5.90
2018-12-03T15:49:32.150Z,5.67
2018-12-03T15:54:41.729Z,5.50
2018-12-03T15:59:51.101Z,4.60
2018-12-03T16:05:00.597Z,3.83
2018-12-03T16:10:12.122Z,3.97
2018-12-03T16:15:21.542Z,4.43
2018-12-03T16:20:31.130Z,5.53
2018-12-03T16:25:40.475Z,4.10
2018-12-03T16:30:50.030Z,4.30
2018-12-03T16:35:59.369Z,5.67
2018-12-03T16:41:18.881Z,5.70
2018-12-03T16:46:28.306Z,5.50
2018-12-03T16:51:37.645Z,5.50
2018-12-03T16:56:46.946Z,4.17
2018-12-03T17:01:56.345Z,4.60
2018-12-03T17:07:05.807Z,4.57
2018-12-03T17:12:15.470Z,3.97
2018-12-03T17:17:24.743Z,3.63
2018-12-03T17:22:45.489Z,2.30
2018-12-03T17:27:54.904Z,3.70
2018-12-03T17:33:04.281Z,4.40
2018-12-03T17:38:13.673Z,4.57
2018-12-03T17:43:23.055Z,4.57
2018-12-03T17:48:32.435Z,5.50
2018-12-03T17:53:41.841Z,4.30
2018-12-03T17:58:51.310Z,5.00
2018-12-03T18:04:00.662Z,5.40
2018-12-03T18:09:10.362Z,4.67
2018-12-03T18:14:19.706Z,4.63
2018-12-03T18:19:29.220Z,4.00
2018-12-03T18:24:38.614Z,3.97
2018-12-03T18:29:47.997Z,3.60
2018-12-03T18:34:57.329Z,3.90
2018-12-03T18:40:08.618Z,2.90
2018-12-03T18:45:17.934Z,3.07
2018-12-03T18:50:32.240Z,3.10
2018-12-03T18:55:41.722Z,3.60
2018-12-03T19:00:52.145Z,4.13
2018-12-03T19:06:02.651Z,3.70
2018-12-03T19:11:12.053Z,4.17
2018-12-03T19:16:21.754Z,3.27
2018-12-03T19:21:31.318Z,3.40
2018-12-03T19:26:41.503Z,4.27
2018-12-03T19:31:50.995Z,4.23
2018-12-03T19:37:00.370Z,4.43
2018-12-03T19:42:09.763Z,3.83
2018-12-03T19:47:19.278Z,3.47
2018-12-03T19:52:28.704Z,3.77
2018-12-03T19:57:38.499Z,3.60
2018-12-03T20:02:48.007Z,4.27
2018-12-03T20:07:57.462Z,3.93
2018-12-03T20:13:07.262Z,4.30
2018-12-03T20:18:17.299Z,3.90
2018-12-03T20:23:33.905Z,4.37
2018-12-03T20:28:48.775Z,3.23
2018-12-03T20:34:18.132Z,4.07
2018-12-03T20:39:41.685Z,4.23
2018-12-03T20:45:02.034Z,4.40
2018-12-03T20:50:24.100Z,4.70
2018-12-03T20:55:37.257Z,5.07
2018-12-03T21:00:46.978Z,5.80
2018-12-03T21:05:58.213Z,6.13
2018-12-03T21:11:08.024Z,4.47
2018-12-03T21:16:17.401Z,5.53
2018-12-03T21:21:27.434Z,6.27
2018-12-03T21:26:36.945Z,5.83
2018-12-03T21:31:46.402Z,5.23
2018-12-03T21:36:55.885Z,5.17
2018-12-03T21:42:05.410Z,8.27
2018-12-03T21:47:15.006Z,8.40
2018-12-03T21:52:24.478Z,8.30
2018-12-03T21:57:33.786Z,6.33
2018-12-03T22:02:43.133Z,5.90
2018-12-03T22:07:52.758Z,6.60
2018-12-03T22:13:02.214Z,5.73
2018-12-03T22:18:11.746Z,6.70
2018-12-03T22:23:21.328Z,6.07
2018-12-03T22:28:30.635Z,7.90
2018-12-03T22:33:39.962Z,6.33
2018-12-03T22:38:49.399Z,5.60
2018-12-03T22:43:58.914Z,7.67
2018-12-03T22:49:08.402Z,7.27
2018-12-03T22:54:17.737Z,5.87
2018-12-03T22:59:27.062Z,8.07
2018-12-03T23:04:39.473Z,8.40
2018-12-03T23:09:49.029Z,6.50
2018-12-03T23:14:58.387Z,6.00
2018-12-03T23:20:07.893Z,4.40
2018-12-03T23:25:17.422Z,3.83
2018-12-03T23:30:26.765Z,3.70
2018-12-03T23:35:36.110Z,3.47
2018-12-03T23:40:45.441Z,2.60
2018-12-03T23:45:54.805Z,2.70
2018-12-03T23:51:04.191Z,2.00
2018-12-03T23:56:13.674Z,1.73
